Sadiqabad Weather



Sadiqabad's Current Weather

Temprature 29.65o clear sky

clear sky

Rain: 0 %

Min Temprature29.65o
Max Temprature29.65o
Humidity56
Wind Speed3.98 m/h
Sun Rise05:53:11
Sun Set18:51:45
Current Time: 23-Aug-2019 05:05:26
Lat/Lon: 28.31, 70.13




Sadiqabad's Geo Location



Sadiqabad's Weather Forecast

Time Overall Temp Min Temp Max Temp Humidity Wind Speed Rain
23-Aug-2019 (Fri)
08:00:00 clear sky 32.050 32.047 32.050 51 6.04 m/h 0 %
11:00:00 clear sky 39.650 39.650 39.650 26 6.33 m/h 0 %
14:00:00 clear sky 42.930 42.930 42.931 17 5.04 m/h 0 %
17:00:00 clear sky 43.110 43.110 43.111 14 4.55 m/h 0 %
20:00:00 clear sky 37.650 37.650 37.650 21 6.49 m/h 0 %
23:00:00 clear sky 35.742 35.742 35.742 26 6.61 m/h 0 %
24-Aug-2019 (Sat)
02:00:00 clear sky 33.131 33.131 33.131 41 6.43 m/h 0 %
05:00:00 clear sky 29.855 29.855 29.855 58 3.36 m/h 0 %
08:00:00 clear sky 32.357 32.357 32.357 48 5.74 m/h 0 %
11:00:00 clear sky 39.769 39.769 39.769 24 6 m/h 0 %
14:00:00 clear sky 42.869 42.869 42.869 17 5.68 m/h 0 %
17:00:00 clear sky 42.123 42.123 42.123 17 5.3 m/h 0 %
20:00:00 clear sky 36.850 36.850 36.850 22 4.68 m/h 0 %
23:00:00 clear sky 35.669 35.669 35.669 22 6.12 m/h 0 %
25-Aug-2019 (Sun)
02:00:00 clear sky 32.231 32.231 32.231 39 5.83 m/h 0 %
05:00:00 clear sky 28.957 28.957 28.957 65 5.41 m/h 0 %
08:00:00 clear sky 31.114 31.114 31.114 54 5.64 m/h 0 %
11:00:00 clear sky 38.516 38.516 38.516 29 5.84 m/h 0 %
14:00:00 clear sky 42.350 42.350 42.350 20 4.82 m/h 0 %
17:00:00 clear sky 42.150 42.150 42.150 18 5.35 m/h 0 %
20:00:00 clear sky 36.881 36.881 36.881 25 5.06 m/h 0 %
23:00:00 clear sky 35.011 35.011 35.011 29 4.7 m/h 0 %
26-Aug-2019 (Mon)
02:00:00 few clouds 32.365 32.365 32.365 43 6.54 m/h 0 %
05:00:00 scattered clouds 30.150 30.150 30.150 57 5.6 m/h 0 %
08:00:00 overcast clouds 31.767 31.767 31.767 51 6.05 m/h 0 %
11:00:00 scattered clouds 39.872 39.872 39.872 26 6.4 m/h 0 %
14:00:00 clear sky 43.884 43.884 43.884 16 4.43 m/h 0 %
17:00:00 clear sky 43.620 43.620 43.620 15 3.33 m/h 0 %
20:00:00 overcast clouds 37.372 37.372 37.372 22 2.76 m/h 0 %
23:00:00 overcast clouds 35.814 35.814 35.814 25 4.45 m/h 0 %
27-Aug-2019 (Tue)
02:00:00 overcast clouds 33.816 33.816 33.816 35 4.91 m/h 0 %
05:00:00 overcast clouds 31.850 31.850 31.850 42 3.9 m/h 0 %
08:00:00 overcast clouds 35.235 35.235 35.235 38 4.59 m/h 0 %
11:00:00 scattered clouds 43.036 43.036 43.036 18 3.79 m/h 0 %
14:00:00 clear sky 47.336 47.336 47.336 11 5.81 m/h 0 %
17:00:00 broken clouds 42.565 42.565 42.565 19 7.43 m/h 0 %
20:00:00 broken clouds 36.150 36.150 36.150 29 4.95 m/h 0 %
23:00:00 broken clouds 35.950 35.950 35.950 31 2.27 m/h 0 %
28-Aug-2019 (Wed)
02:00:00 scattered clouds 33.057 33.057 33.057 37 0.36 m/h 0 %
05:00:00 scattered clouds 32.872 32.872 32.872 40 1.84 m/h 0 %


Sadiqabad's Tourist Spots

Historical Places in Sadiqabad

Famous Cities (61)